sensor_id;sensor_type;location;lat;lon;timestamp;P1;durP1;ratioP1;P2;durP2;ratioP2
38513;SDS011;24282;48.400;10.808;2022-09-09T00:00:29;1.95;;;0.80;;
38513;SDS011;24282;48.400;10.808;2022-09-09T00:03:05;4.25;;;0.80;;
38513;SDS011;24282;48.400;10.808;2022-09-09T00:08:44;4.03;;;1.02;;
38513;SDS011;24282;48.400;10.808;2022-09-09T00:11:42;2.65;;;1.00;;
38513;SDS011;24282;48.400;10.808;2022-09-09T00:14:12;1.95;;;0.85;;
38513;SDS011;24282;48.400;10.808;2022-09-09T00:17:02;1.95;;;0.90;;
38513;SDS011;24282;48.400;10.808;2022-09-09T00:22:18;1.90;;;0.82;;
38513;SDS011;24282;48.400;10.808;2022-09-09T00:24:46;2.43;;;0.87;;
38513;SDS011;24282;48.400;10.808;2022-09-09T00:29:54;3.13;;;0.82;;
38513;SDS011;24282;48.400;10.808;2022-09-09T00:32:27;3.40;;;1.00;;
38513;SDS011;24282;48.400;10.808;2022-09-09T00:34:56;5.47;;;0.90;;
38513;SDS011;24282;48.400;10.808;2022-09-09T00:37:26;2.03;;;1.13;;
38513;SDS011;24282;48.400;10.808;2022-09-09T00:39:57;2.55;;;0.95;;
38513;SDS011;24282;48.400;10.808;2022-09-09T00:56:16;1.25;;;0.85;;
38513;SDS011;24282;48.400;10.808;2022-09-09T00:59:22;2.83;;;1.00;;
38513;SDS011;24282;48.400;10.808;2022-09-09T01:02:02;1.40;;;0.80;;
38513;SDS011;24282;48.400;10.808;2022-09-09T01:04:43;3.30;;;1.00;;
38513;SDS011;24282;48.400;10.808;2022-09-09T01:07:16;4.03;;;1.02;;
38513;SDS011;24282;48.400;10.808;2022-09-09T01:12:26;1.42;;;0.80;;
38513;SDS011;24282;48.400;10.808;2022-09-09T01:15:19;2.17;;;0.80;;
38513;SDS011;24282;48.400;10.808;2022-09-09T01:28:43;5.33;;;1.07;;
38513;SDS011;24282;48.400;10.808;2022-09-09T01:31:15;1.10;;;0.90;;
38513;SDS011;24282;48.400;10.808;2022-09-09T01:33:45;1.98;;;1.05;;
38513;SDS011;24282;48.400;10.808;2022-09-09T01:36:18;2.07;;;0.80;;
38513;SDS011;24282;48.400;10.808;2022-09-09T01:39:03;1.97;;;1.13;;
38513;SDS011;24282;48.400;10.808;2022-09-09T01:41:30;1.67;;;1.03;;
38513;SDS011;24282;48.400;10.808;2022-09-09T01:44:03;3.10;;;1.20;;
38513;SDS011;24282;48.400;10.808;2022-09-09T01:46:33;5.90;;;1.30;;
38513;SDS011;24282;48.400;10.808;2022-09-09T01:49:00;3.17;;;1.17;;
38513;SDS011;24282;48.400;10.808;2022-09-09T01:51:29;2.00;;;0.90;;
38513;SDS011;24282;48.400;10.808;2022-09-09T01:53:58;2.73;;;1.00;;
38513;SDS011;24282;48.400;10.808;2022-09-09T01:59:13;3.43;;;1.20;;
38513;SDS011;24282;48.400;10.808;2022-09-09T02:05:08;2.33;;;1.53;;
38513;SDS011;24282;48.400;10.808;2022-09-09T02:08:29;3.10;;;0.73;;
38513;SDS011;24282;48.400;10.808;2022-09-09T02:10:55;1.57;;;1.10;;
38513;SDS011;24282;48.400;10.808;2022-09-09T02:13:35;2.80;;;1.50;;
38513;SDS011;24282;48.400;10.808;2022-09-09T02:16:26;1.47;;;0.87;;
38513;SDS011;24282;48.400;10.808;2022-09-09T02:19:00;2.33;;;1.23;;
38513;SDS011;24282;48.400;10.808;2022-09-09T02:21:59;2.40;;;1.30;;
38513;SDS011;24282;48.400;10.808;2022-09-09T02:24:27;2.60;;;1.10;;
38513;SDS011;24282;48.400;10.808;2022-09-09T02:27:08;2.50;;;1.00;;
38513;SDS011;24282;48.400;10.808;2022-09-09T02:29:40;2.43;;;1.20;;
38513;SDS011;24282;48.400;10.808;2022-09-09T02:32:08;1.30;;;0.80;;
38513;SDS011;24282;48.400;10.808;2022-09-09T02:34:47;2.03;;;0.93;;
38513;SDS011;24282;48.400;10.808;2022-09-09T02:37:17;3.63;;;1.20;;
38513;SDS011;24282;48.400;10.808;2022-09-09T02:39:48;2.53;;;1.10;;
38513;SDS011;24282;48.400;10.808;2022-09-09T02:42:18;1.63;;;0.90;;
38513;SDS011;24282;48.400;10.808;2022-09-09T02:44:44;3.73;;;1.97;;
38513;SDS011;24282;48.400;10.808;2022-09-09T02:50:17;3.33;;;1.90;;
38513;SDS011;24282;48.400;10.808;2022-09-09T02:56:14;3.37;;;1.10;;
38513;SDS011;24282;48.400;10.808;2022-09-09T02:58:46;1.53;;;1.03;;
38513;SDS011;24282;48.400;10.808;2022-09-09T03:01:12;3.27;;;1.17;;
38513;SDS011;24282;48.400;10.808;2022-09-09T03:03:39;1.05;;;0.80;;
38513;SDS011;24282;48.400;10.808;2022-09-09T03:06:10;2.07;;;0.90;;
38513;SDS011;24282;48.400;10.808;2022-09-09T03:08:38;2.03;;;0.80;;
38513;SDS011;24282;48.400;10.808;2022-09-09T03:11:04;1.47;;;1.00;;
38513;SDS011;24282;48.400;10.808;2022-09-09T03:13:33;2.00;;;0.83;;
38513;SDS011;24282;48.400;10.808;2022-09-09T03:15:59;4.50;;;1.43;;
38513;SDS011;24282;48.400;10.808;2022-09-09T03:18:26;1.67;;;1.33;;
38513;SDS011;24282;48.400;10.808;2022-09-09T03:20:53;2.73;;;1.30;;
38513;SDS011;24282;48.400;10.808;2022-09-09T03:23:20;1.43;;;0.90;;
38513;SDS011;24282;48.400;10.808;2022-09-09T03:25:50;3.17;;;1.23;;
38513;SDS011;24282;48.400;10.808;2022-09-09T03:28:21;2.43;;;1.20;;
38513;SDS011;24282;48.400;10.808;2022-09-09T03:30:49;3.10;;;1.03;;
38513;SDS011;24282;48.400;10.808;2022-09-09T03:33:15;2.90;;;1.20;;
38513;SDS011;24282;48.400;10.808;2022-09-09T03:35:45;1.63;;;1.10;;
38513;SDS011;24282;48.400;10.808;2022-09-09T03:38:14;2.40;;;0.87;;
38513;SDS011;24282;48.400;10.808;2022-09-09T03:40:47;1.77;;;0.90;;
38513;SDS011;24282;48.400;10.808;2022-09-09T03:43:14;1.40;;;0.77;;
38513;SDS011;24282;48.400;10.808;2022-09-09T03:45:45;2.20;;;0.80;;
38513;SDS011;24282;48.400;10.808;2022-09-09T03:48:14;1.80;;;0.90;;
38513;SDS011;24282;48.400;10.808;2022-09-09T03:50:47;2.20;;;0.93;;
38513;SDS011;24282;48.400;10.808;2022-09-09T03:53:16;2.30;;;0.90;;
38513;SDS011;24282;48.400;10.808;2022-09-09T03:55:43;1.87;;;1.30;;
38513;SDS011;24282;48.400;10.808;2022-09-09T03:58:11;0.87;;;0.60;;
38513;SDS011;24282;48.400;10.808;2022-09-09T04:00:39;1.30;;;0.90;;
38513;SDS011;24282;48.400;10.808;2022-09-09T04:03:11;1.30;;;1.00;;
38513;SDS011;24282;48.400;10.808;2022-09-09T04:05:39;1.93;;;1.73;;
38513;SDS011;24282;48.400;10.808;2022-09-09T04:08:07;3.90;;;1.60;;
38513;SDS011;24282;48.400;10.808;2022-09-09T04:10:34;3.97;;;2.27;;
38513;SDS011;24282;48.400;10.808;2022-09-09T04:13:04;3.67;;;1.80;;
38513;SDS011;24282;48.400;10.808;2022-09-09T04:15:30;1.47;;;0.97;;
38513;SDS011;24282;48.400;10.808;2022-09-09T04:17:57;1.40;;;0.97;;
38513;SDS011;24282;48.400;10.808;2022-09-09T04:20:26;2.43;;;0.87;;
38513;SDS011;24282;48.400;10.808;2022-09-09T04:22:52;1.23;;;0.80;;
38513;SDS011;24282;48.400;10.808;2022-09-09T04:25:17;1.20;;;0.70;;
38513;SDS011;24282;48.400;10.808;2022-09-09T04:27:43;4.80;;;1.10;;
38513;SDS011;24282;48.400;10.808;2022-09-09T04:30:09;1.87;;;0.90;;
38513;SDS011;24282;48.400;10.808;2022-09-09T04:32:36;2.63;;;0.80;;
38513;SDS011;24282;48.400;10.808;2022-09-09T04:35:02;1.00;;;0.63;;
38513;SDS011;24282;48.400;10.808;2022-09-09T04:37:29;3.67;;;0.80;;
38513;SDS011;24282;48.400;10.808;2022-09-09T04:39:55;2.30;;;1.07;;
38513;SDS011;24282;48.400;10.808;2022-09-09T04:42:21;2.23;;;1.07;;
38513;SDS011;24282;48.400;10.808;2022-09-09T04:44:48;2.97;;;1.00;;
38513;SDS011;24282;48.400;10.808;2022-09-09T04:47:14;4.03;;;0.97;;
38513;SDS011;24282;48.400;10.808;2022-09-09T04:49:41;1.43;;;0.90;;
38513;SDS011;24282;48.400;10.808;2022-09-09T04:52:06;3.30;;;1.30;;
38513;SDS011;24282;48.400;10.808;2022-09-09T04:54:34;1.33;;;0.80;;
38513;SDS011;24282;48.400;10.808;2022-09-09T04:57:00;2.23;;;1.07;;
38513;SDS011;24282;48.400;10.808;2022-09-09T04:59:26;1.03;;;0.87;;
38513;SDS011;24282;48.400;10.808;2022-09-09T05:01:57;1.90;;;0.80;;
38513;SDS011;24282;48.400;10.808;2022-09-09T05:04:23;3.50;;;1.07;;
38513;SDS011;24282;48.400;10.808;2022-09-09T05:06:49;6.20;;;0.93;;
38513;SDS011;24282;48.400;10.808;2022-09-09T05:09:15;1.73;;;0.87;;
38513;SDS011;24282;48.400;10.808;2022-09-09T05:11:43;2.07;;;1.23;;
38513;SDS011;24282;48.400;10.808;2022-09-09T05:14:29;4.37;;;1.13;;
38513;SDS011;24282;48.400;10.808;2022-09-09T05:16:55;4.47;;;1.40;;
38513;SDS011;24282;48.400;10.808;2022-09-09T05:19:22;2.23;;;1.03;;
38513;SDS011;24282;48.400;10.808;2022-09-09T05:21:51;6.30;;;1.23;;
38513;SDS011;24282;48.400;10.808;2022-09-09T05:24:21;4.27;;;1.20;;
38513;SDS011;24282;48.400;10.808;2022-09-09T05:26:51;3.87;;;1.63;;
38513;SDS011;24282;48.400;10.808;2022-09-09T05:29:17;3.03;;;1.47;;
38513;SDS011;24282;48.400;10.808;2022-09-09T05:31:45;4.87;;;1.43;;
38513;SDS011;24282;48.400;10.808;2022-09-09T05:34:14;3.20;;;1.40;;
38513;SDS011;24282;48.400;10.808;2022-09-09T05:36:40;4.47;;;1.40;;
38513;SDS011;24282;48.400;10.808;2022-09-09T05:39:06;3.50;;;1.30;;
38513;SDS011;24282;48.400;10.808;2022-09-09T05:41:33;2.10;;;1.13;;
38513;SDS011;24282;48.400;10.808;2022-09-09T05:44:01;1.53;;;0.73;;
38513;SDS011;24282;48.400;10.808;2022-09-09T05:46:32;3.45;;;1.10;;
38513;SDS011;24282;48.400;10.808;2022-09-09T05:48:57;3.15;;;1.27;;
38513;SDS011;24282;48.400;10.808;2022-09-09T05:51:28;4.63;;;1.37;;
38513;SDS011;24282;48.400;10.808;2022-09-09T05:56:30;4.40;;;1.30;;
38513;SDS011;24282;48.400;10.808;2022-09-09T05:58:58;2.97;;;1.30;;
38513;SDS011;24282;48.400;10.808;2022-09-09T06:01:35;2.28;;;1.52;;
38513;SDS011;24282;48.400;10.808;2022-09-09T06:04:06;3.72;;;1.17;;
38513;SDS011;24282;48.400;10.808;2022-09-09T06:06:33;3.75;;;1.35;;
38513;SDS011;24282;48.400;10.808;2022-09-09T06:09:02;2.00;;;1.02;;
38513;SDS011;24282;48.400;10.808;2022-09-09T06:11:34;2.22;;;1.42;;
38513;SDS011;24282;48.400;10.808;2022-09-09T06:14:02;2.63;;;1.33;;
38513;SDS011;24282;48.400;10.808;2022-09-09T06:16:30;6.45;;;3.55;;
38513;SDS011;24282;48.400;10.808;2022-09-09T06:18:59;5.25;;;2.00;;
38513;SDS011;24282;48.400;10.808;2022-09-09T06:21:29;2.92;;;1.77;;
38513;SDS011;24282;48.400;10.808;2022-09-09T06:23:59;4.15;;;1.88;;
38513;SDS011;24282;48.400;10.808;2022-09-09T06:26:29;4.90;;;1.60;;
38513;SDS011;24282;48.400;10.808;2022-09-09T06:29:00;4.10;;;1.20;;
38513;SDS011;24282;48.400;10.808;2022-09-09T06:31:29;2.42;;;1.30;;
38513;SDS011;24282;48.400;10.808;2022-09-09T06:34:00;5.38;;;1.85;;
38513;SDS011;24282;48.400;10.808;2022-09-09T06:36:29;5.90;;;1.55;;
38513;SDS011;24282;48.400;10.808;2022-09-09T06:38:57;3.03;;;1.52;;
38513;SDS011;24282;48.400;10.808;2022-09-09T06:41:23;3.17;;;1.50;;
38513;SDS011;24282;48.400;10.808;2022-09-09T06:43:52;2.70;;;1.40;;
38513;SDS011;24282;48.400;10.808;2022-09-09T06:46:24;3.70;;;1.35;;
38513;SDS011;24282;48.400;10.808;2022-09-09T06:48:56;2.22;;;1.33;;
38513;SDS011;24282;48.400;10.808;2022-09-09T06:51:32;3.85;;;1.23;;
38513;SDS011;24282;48.400;10.808;2022-09-09T06:54:01;5.28;;;1.42;;
38513;SDS011;24282;48.400;10.808;2022-09-09T06:56:33;3.35;;;1.30;;
38513;SDS011;24282;48.400;10.808;2022-09-09T06:59:10;3.40;;;1.45;;
38513;SDS011;24282;48.400;10.808;2022-09-09T07:01:41;2.95;;;1.50;;
38513;SDS011;24282;48.400;10.808;2022-09-09T07:04:14;5.80;;;1.80;;
38513;SDS011;24282;48.400;10.808;2022-09-09T07:06:43;3.75;;;1.80;;
38513;SDS011;24282;48.400;10.808;2022-09-09T07:09:14;2.38;;;1.63;;
38513;SDS011;24282;48.400;10.808;2022-09-09T07:11:44;2.50;;;1.80;;
38513;SDS011;24282;48.400;10.808;2022-09-09T07:14:12;3.88;;;1.73;;
38513;SDS011;24282;48.400;10.808;2022-09-09T07:16:43;2.97;;;1.30;;
38513;SDS011;24282;48.400;10.808;2022-09-09T07:19:10;3.72;;;1.75;;
38513;SDS011;24282;48.400;10.808;2022-09-09T07:21:38;4.07;;;1.90;;
38513;SDS011;24282;48.400;10.808;2022-09-09T07:24:06;3.72;;;1.73;;
38513;SDS011;24282;48.400;10.808;2022-09-09T07:26:37;5.07;;;1.90;;
38513;SDS011;24282;48.400;10.808;2022-09-09T07:29:04;5.43;;;2.50;;
38513;SDS011;24282;48.400;10.808;2022-09-09T07:31:31;2.17;;;1.75;;
38513;SDS011;24282;48.400;10.808;2022-09-09T07:34:00;3.38;;;1.88;;
38513;SDS011;24282;48.400;10.808;2022-09-09T07:36:27;2.80;;;1.67;;
38513;SDS011;24282;48.400;10.808;2022-09-09T07:38:57;5.57;;;2.70;;
38513;SDS011;24282;48.400;10.808;2022-09-09T07:41:32;5.40;;;2.13;;
38513;SDS011;24282;48.400;10.808;2022-09-09T07:44:07;3.60;;;2.13;;
38513;SDS011;24282;48.400;10.808;2022-09-09T07:47:08;4.30;;;2.13;;
38513;SDS011;24282;48.400;10.808;2022-09-09T07:49:39;5.75;;;2.20;;
38513;SDS011;24282;48.400;10.808;2022-09-09T07:52:07;3.75;;;1.95;;
38513;SDS011;24282;48.400;10.808;2022-09-09T07:54:34;3.95;;;2.20;;
38513;SDS011;24282;48.400;10.808;2022-09-09T07:57:03;3.63;;;1.60;;
38513;SDS011;24282;48.400;10.808;2022-09-09T07:59:31;2.42;;;1.65;;
38513;SDS011;24282;48.400;10.808;2022-09-09T08:01:57;4.15;;;2.20;;
38513;SDS011;24282;48.400;10.808;2022-09-09T08:04:27;4.28;;;2.30;;
38513;SDS011;24282;48.400;10.808;2022-09-09T08:06:57;4.00;;;2.15;;
38513;SDS011;24282;48.400;10.808;2022-09-09T08:09:26;4.77;;;2.57;;
38513;SDS011;24282;48.400;10.808;2022-09-09T08:11:59;5.10;;;2.13;;
38513;SDS011;24282;48.400;10.808;2022-09-09T08:14:28;4.00;;;1.80;;
38513;SDS011;24282;48.400;10.808;2022-09-09T08:16:55;5.97;;;2.25;;
38513;SDS011;24282;48.400;10.808;2022-09-09T08:19:24;4.03;;;2.10;;
38513;SDS011;24282;48.400;10.808;2022-09-09T08:21:51;4.25;;;1.73;;
38513;SDS011;24282;48.400;10.808;2022-09-09T08:24:17;6.30;;;2.22;;
38513;SDS011;24282;48.400;10.808;2022-09-09T08:26:47;3.50;;;1.80;;
38513;SDS011;24282;48.400;10.808;2022-09-09T08:29:16;4.82;;;1.85;;
38513;SDS011;24282;48.400;10.808;2022-09-09T08:31:47;3.75;;;1.85;;
38513;SDS011;24282;48.400;10.808;2022-09-09T08:34:19;3.45;;;2.00;;
38513;SDS011;24282;48.400;10.808;2022-09-09T08:36:48;2.55;;;1.67;;
38513;SDS011;24282;48.400;10.808;2022-09-09T08:39:18;3.88;;;1.63;;
38513;SDS011;24282;48.400;10.808;2022-09-09T08:53:04;2.15;;;1.35;;
38513;SDS011;24282;48.400;10.808;2022-09-09T08:58:21;2.70;;;1.42;;
38513;SDS011;24282;48.400;10.808;2022-09-09T09:01:01;3.53;;;1.42;;
38513;SDS011;24282;48.400;10.808;2022-09-09T09:08:53;2.58;;;1.35;;
38513;SDS011;24282;48.400;10.808;2022-09-09T09:11:37;3.45;;;2.05;;
38513;SDS011;24282;48.400;10.808;2022-09-09T09:16:45;4.55;;;1.40;;
38513;SDS011;24282;48.400;10.808;2022-09-09T09:19:32;4.50;;;1.63;;
38513;SDS011;24282;48.400;10.808;2022-09-09T09:22:05;2.90;;;1.50;;
38513;SDS011;24282;48.400;10.808;2022-09-09T09:33:20;3.75;;;1.60;;
38513;SDS011;24282;48.400;10.808;2022-09-09T09:35:52;2.67;;;1.60;;
38513;SDS011;24282;48.400;10.808;2022-09-09T09:38:21;2.50;;;1.15;;
38513;SDS011;24282;48.400;10.808;2022-09-09T09:40:54;4.32;;;1.35;;
38513;SDS011;24282;48.400;10.808;2022-09-09T09:45:57;2.65;;;1.10;;
38513;SDS011;24282;48.400;10.808;2022-09-09T09:48:24;3.53;;;1.40;;
38513;SDS011;24282;48.400;10.808;2022-09-09T09:51:11;4.63;;;1.17;;
38513;SDS011;24282;48.400;10.808;2022-09-09T09:53:42;4.25;;;1.50;;
38513;SDS011;24282;48.400;10.808;2022-09-09T09:56:11;2.72;;;1.20;;
38513;SDS011;24282;48.400;10.808;2022-09-09T10:01:23;3.50;;;0.90;;
38513;SDS011;24282;48.400;10.808;2022-09-09T10:04:00;4.18;;;1.13;;
38513;SDS011;24282;48.400;10.808;2022-09-09T10:06:50;4.32;;;1.15;;
38513;SDS011;24282;48.400;10.808;2022-09-09T10:09:26;3.05;;;1.25;;
38513;SDS011;24282;48.400;10.808;2022-09-09T10:17:34;2.45;;;1.00;;
38513;SDS011;24282;48.400;10.808;2022-09-09T10:28:27;3.90;;;1.42;;
38513;SDS011;24282;48.400;10.808;2022-09-09T10:31:12;1.52;;;0.75;;
38513;SDS011;24282;48.400;10.808;2022-09-09T10:33:51;2.75;;;1.25;;
38513;SDS011;24282;48.400;10.808;2022-09-09T10:36:24;1.63;;;0.90;;
38513;SDS011;24282;48.400;10.808;2022-09-09T10:47:11;2.42;;;0.90;;
38513;SDS011;24282;48.400;10.808;2022-09-09T10:52:38;2.35;;;1.08;;
38513;SDS011;24282;48.400;10.808;2022-09-09T10:55:26;4.88;;;1.33;;
38513;SDS011;24282;48.400;10.808;2022-09-09T10:58:02;3.20;;;0.88;;
38513;SDS011;24282;48.400;10.808;2022-09-09T11:00:46;3.33;;;1.63;;
38513;SDS011;24282;48.400;10.808;2022-09-09T11:03:17;2.42;;;1.00;;
38513;SDS011;24282;48.400;10.808;2022-09-09T11:05:47;3.57;;;1.30;;
38513;SDS011;24282;48.400;10.808;2022-09-09T11:08:18;3.30;;;1.77;;
38513;SDS011;24282;48.400;10.808;2022-09-09T11:13:44;2.60;;;1.10;;
38513;SDS011;24282;48.400;10.808;2022-09-09T11:18:59;1.20;;;0.80;;
38513;SDS011;24282;48.400;10.808;2022-09-09T11:21:40;3.05;;;0.82;;
38513;SDS011;24282;48.400;10.808;2022-09-09T11:24:16;2.80;;;0.93;;
38513;SDS011;24282;48.400;10.808;2022-09-09T11:27:08;3.25;;;0.90;;
38513;SDS011;24282;48.400;10.808;2022-09-09T11:35:26;3.38;;;1.10;;
38513;SDS011;24282;48.400;10.808;2022-09-09T11:38:27;2.95;;;0.90;;
38513;SDS011;24282;48.400;10.808;2022-09-09T11:41:01;2.30;;;1.10;;
38513;SDS011;24282;48.400;10.808;2022-09-09T11:46:17;2.50;;;1.10;;
38513;SDS011;24282;48.400;10.808;2022-09-09T11:49:00;5.18;;;1.13;;
38513;SDS011;24282;48.400;10.808;2022-09-09T11:51:28;3.63;;;0.77;;
38513;SDS011;24282;48.400;10.808;2022-09-09T11:53:59;3.55;;;0.90;;
38513;SDS011;24282;48.400;10.808;2022-09-09T11:56:44;3.67;;;0.90;;
38513;SDS011;24282;48.400;10.808;2022-09-09T11:59:21;3.33;;;0.70;;
38513;SDS011;24282;48.400;10.808;2022-09-09T12:04:37;2.53;;;0.85;;
38513;SDS011;24282;48.400;10.808;2022-09-09T12:09:43;2.75;;;0.95;;
38513;SDS011;24282;48.400;10.808;2022-09-09T12:17:23;4.18;;;0.95;;
38513;SDS011;24282;48.400;10.808;2022-09-09T12:30:53;3.50;;;1.20;;
38513;SDS011;24282;48.400;10.808;2022-09-09T12:33:37;2.22;;;0.68;;
38513;SDS011;24282;48.400;10.808;2022-09-09T12:36:12;1.75;;;0.75;;
38513;SDS011;24282;48.400;10.808;2022-09-09T12:38:44;2.90;;;0.80;;
38513;SDS011;24282;48.400;10.808;2022-09-09T12:43:45;5.57;;;1.00;;
38513;SDS011;24282;48.400;10.808;2022-09-09T12:46:15;1.80;;;0.75;;
38513;SDS011;24282;48.400;10.808;2022-09-09T12:49:04;3.17;;;1.02;;
38513;SDS011;24282;48.400;10.808;2022-09-09T12:51:31;3.95;;;0.93;;
38513;SDS011;24282;48.400;10.808;2022-09-09T12:53:58;3.00;;;1.05;;
38513;SDS011;24282;48.400;10.808;2022-09-09T12:56:26;3.25;;;0.90;;
38513;SDS011;24282;48.400;10.808;2022-09-09T12:58:56;3.25;;;0.82;;
38513;SDS011;24282;48.400;10.808;2022-09-09T13:01:24;2.17;;;0.80;;
38513;SDS011;24282;48.400;10.808;2022-09-09T13:03:52;3.42;;;0.98;;
38513;SDS011;24282;48.400;10.808;2022-09-09T13:06:24;1.90;;;0.82;;
38513;SDS011;24282;48.400;10.808;2022-09-09T13:08:52;3.58;;;1.05;;
38513;SDS011;24282;48.400;10.808;2022-09-09T13:11:23;3.03;;;0.80;;
38513;SDS011;24282;48.400;10.808;2022-09-09T13:14:14;3.58;;;0.98;;
38513;SDS011;24282;48.400;10.808;2022-09-09T13:16:53;2.75;;;0.82;;
38513;SDS011;24282;48.400;10.808;2022-09-09T13:19:23;3.17;;;1.20;;
38513;SDS011;24282;48.400;10.808;2022-09-09T13:21:54;3.88;;;0.82;;
38513;SDS011;24282;48.400;10.808;2022-09-09T13:24:25;1.92;;;0.70;;
38513;SDS011;24282;48.400;10.808;2022-09-09T13:27:00;2.33;;;0.85;;
38513;SDS011;24282;48.400;10.808;2022-09-09T13:29:50;3.22;;;1.08;;
38513;SDS011;24282;48.400;10.808;2022-09-09T13:32:20;2.55;;;1.00;;
38513;SDS011;24282;48.400;10.808;2022-09-09T13:34:51;3.58;;;1.10;;
38513;SDS011;24282;48.400;10.808;2022-09-09T13:39:55;4.70;;;0.85;;
38513;SDS011;24282;48.400;10.808;2022-09-09T13:42:28;4.30;;;0.88;;
38513;SDS011;24282;48.400;10.808;2022-09-09T13:44:56;2.40;;;0.80;;
38513;SDS011;24282;48.400;10.808;2022-09-09T13:47:35;4.50;;;1.20;;
38513;SDS011;24282;48.400;10.808;2022-09-09T13:50:20;2.58;;;0.80;;
38513;SDS011;24282;48.400;10.808;2022-09-09T13:52:47;3.30;;;1.13;;
38513;SDS011;24282;48.400;10.808;2022-09-09T13:55:14;2.10;;;0.80;;
38513;SDS011;24282;48.400;10.808;2022-09-09T13:57:49;2.95;;;0.70;;
38513;SDS011;24282;48.400;10.808;2022-09-09T14:00:38;6.38;;;1.20;;
38513;SDS011;24282;48.400;10.808;2022-09-09T14:03:04;3.20;;;0.95;;
38513;SDS011;24282;48.400;10.808;2022-09-09T14:05:32;2.53;;;0.70;;
38513;SDS011;24282;48.400;10.808;2022-09-09T14:08:01;2.47;;;0.80;;
38513;SDS011;24282;48.400;10.808;2022-09-09T14:10:32;3.55;;;0.80;;
38513;SDS011;24282;48.400;10.808;2022-09-09T14:13:00;1.48;;;0.50;;
38513;SDS011;24282;48.400;10.808;2022-09-09T14:15:26;1.33;;;0.50;;
38513;SDS011;24282;48.400;10.808;2022-09-09T14:17:52;1.77;;;0.50;;
38513;SDS011;24282;48.400;10.808;2022-09-09T14:20:18;1.38;;;0.50;;
38513;SDS011;24282;48.400;10.808;2022-09-09T14:22:44;1.45;;;0.57;;
38513;SDS011;24282;48.400;10.808;2022-09-09T14:25:10;1.90;;;0.60;;
38513;SDS011;24282;48.400;10.808;2022-09-09T14:27:38;2.97;;;0.80;;
38513;SDS011;24282;48.400;10.808;2022-09-09T14:30:05;2.47;;;0.82;;
38513;SDS011;24282;48.400;10.808;2022-09-09T14:32:32;1.83;;;0.63;;
38513;SDS011;24282;48.400;10.808;2022-09-09T14:34:58;3.00;;;0.60;;
38513;SDS011;24282;48.400;10.808;2022-09-09T14:37:24;4.22;;;1.35;;
38513;SDS011;24282;48.400;10.808;2022-09-09T14:39:50;2.40;;;0.63;;
38513;SDS011;24282;48.400;10.808;2022-09-09T14:42:16;1.90;;;0.90;;
38513;SDS011;24282;48.400;10.808;2022-09-09T14:44:42;1.75;;;0.60;;
38513;SDS011;24282;48.400;10.808;2022-09-09T14:47:08;1.45;;;0.70;;
38513;SDS011;24282;48.400;10.808;2022-09-09T14:49:34;2.17;;;0.60;;
38513;SDS011;24282;48.400;10.808;2022-09-09T14:52:01;3.05;;;1.00;;
38513;SDS011;24282;48.400;10.808;2022-09-09T14:54:27;4.10;;;1.00;;
38513;SDS011;24282;48.400;10.808;2022-09-09T14:56:53;8.43;;;1.20;;
38513;SDS011;24282;48.400;10.808;2022-09-09T14:59:19;2.75;;;0.90;;
38513;SDS011;24282;48.400;10.808;2022-09-09T15:01:45;3.47;;;0.68;;
38513;SDS011;24282;48.400;10.808;2022-09-09T15:04:12;1.83;;;0.80;;
38513;SDS011;24282;48.400;10.808;2022-09-09T15:06:39;3.65;;;0.82;;
38513;SDS011;24282;48.400;10.808;2022-09-09T15:09:07;2.97;;;0.68;;
38513;SDS011;24282;48.400;10.808;2022-09-09T15:11:34;2.30;;;0.50;;
38513;SDS011;24282;48.400;10.808;2022-09-09T15:14:07;1.58;;;0.68;;
38513;SDS011;24282;48.400;10.808;2022-09-09T15:16:34;0.85;;;0.50;;
38513;SDS011;24282;48.400;10.808;2022-09-09T15:19:00;0.75;;;0.40;;
38513;SDS011;24282;48.400;10.808;2022-09-09T15:21:28;0.95;;;0.40;;
38513;SDS011;24282;48.400;10.808;2022-09-09T15:23:59;1.67;;;0.50;;
38513;SDS011;24282;48.400;10.808;2022-09-09T15:26:25;1.92;;;0.77;;
38513;SDS011;24282;48.400;10.808;2022-09-09T15:28:52;1.95;;;0.88;;
38513;SDS011;24282;48.400;10.808;2022-09-09T15:31:20;1.10;;;0.57;;
38513;SDS011;24282;48.400;10.808;2022-09-09T15:38:47;1.38;;;0.65;;
38513;SDS011;24282;48.400;10.808;2022-09-09T15:41:14;0.85;;;0.47;;
38513;SDS011;24282;48.400;10.808;2022-09-09T15:43:45;1.58;;;0.50;;
38513;SDS011;24282;48.400;10.808;2022-09-09T15:48:43;2.92;;;0.73;;
38513;SDS011;24282;48.400;10.808;2022-09-09T15:51:10;3.30;;;1.67;;
38513;SDS011;24282;48.400;10.808;2022-09-09T15:53:37;2.97;;;1.30;;
38513;SDS011;24282;48.400;10.808;2022-09-09T15:56:04;4.28;;;1.40;;
38513;SDS011;24282;48.400;10.808;2022-09-09T15:58:32;3.20;;;0.88;;
38513;SDS011;24282;48.400;10.808;2022-09-09T16:01:16;2.00;;;0.80;;
38513;SDS011;24282;48.400;10.808;2022-09-09T16:03:42;1.75;;;0.63;;
38513;SDS011;24282;48.400;10.808;2022-09-09T16:06:11;4.05;;;1.05;;
38513;SDS011;24282;48.400;10.808;2022-09-09T16:08:39;3.05;;;1.02;;
38513;SDS011;24282;48.400;10.808;2022-09-09T16:11:07;1.80;;;0.95;;
38513;SDS011;24282;48.400;10.808;2022-09-09T16:13:41;1.73;;;0.90;;
38513;SDS011;24282;48.400;10.808;2022-09-09T16:16:09;3.65;;;1.13;;
38513;SDS011;24282;48.400;10.808;2022-09-09T16:18:45;3.10;;;1.30;;
38513;SDS011;24282;48.400;10.808;2022-09-09T16:21:16;2.28;;;0.80;;
38513;SDS011;24282;48.400;10.808;2022-09-09T16:23:44;2.47;;;1.00;;
38513;SDS011;24282;48.400;10.808;2022-09-09T16:26:11;1.92;;;1.00;;
38513;SDS011;24282;48.400;10.808;2022-09-09T16:28:38;1.67;;;0.90;;
38513;SDS011;24282;48.400;10.808;2022-09-09T16:31:05;3.80;;;1.65;;
38513;SDS011;24282;48.400;10.808;2022-09-09T16:33:31;3.03;;;1.20;;
38513;SDS011;24282;48.400;10.808;2022-09-09T16:35:57;3.10;;;1.20;;
38513;SDS011;24282;48.400;10.808;2022-09-09T16:38:23;4.68;;;1.48;;
38513;SDS011;24282;48.400;10.808;2022-09-09T16:40:49;2.42;;;1.17;;
38513;SDS011;24282;48.400;10.808;2022-09-09T16:43:15;3.22;;;1.27;;
38513;SDS011;24282;48.400;10.808;2022-09-09T16:45:44;2.55;;;1.25;;
38513;SDS011;24282;48.400;10.808;2022-09-09T16:48:11;2.92;;;1.10;;
38513;SDS011;24282;48.400;10.808;2022-09-09T16:50:37;2.78;;;1.00;;
38513;SDS011;24282;48.400;10.808;2022-09-09T16:53:04;1.20;;;0.65;;
38513;SDS011;24282;48.400;10.808;2022-09-09T16:55:37;1.52;;;0.70;;
38513;SDS011;24282;48.400;10.808;2022-09-09T16:58:15;3.13;;;1.00;;
38513;SDS011;24282;48.400;10.808;2022-09-09T17:00:41;4.72;;;1.00;;
38513;SDS011;24282;48.400;10.808;2022-09-09T17:03:11;2.75;;;1.20;;
38513;SDS011;24282;48.400;10.808;2022-09-09T17:05:40;2.03;;;0.90;;
38513;SDS011;24282;48.400;10.808;2022-09-09T17:08:06;1.50;;;0.60;;
38513;SDS011;24282;48.400;10.808;2022-09-09T17:10:40;2.17;;;1.02;;
38513;SDS011;24282;48.400;10.808;2022-09-09T17:13:07;2.80;;;0.77;;
38513;SDS011;24282;48.400;10.808;2022-09-09T17:15:33;1.15;;;0.73;;
38513;SDS011;24282;48.400;10.808;2022-09-09T17:18:05;1.80;;;0.80;;
38513;SDS011;24282;48.400;10.808;2022-09-09T17:20:34;2.25;;;0.73;;
38513;SDS011;24282;48.400;10.808;2022-09-09T17:23:01;2.40;;;1.15;;
38513;SDS011;24282;48.400;10.808;2022-09-09T17:25:26;2.38;;;1.17;;
38513;SDS011;24282;48.400;10.808;2022-09-09T17:27:52;2.53;;;1.40;;
38513;SDS011;24282;48.400;10.808;2022-09-09T17:30:18;1.67;;;0.90;;
38513;SDS011;24282;48.400;10.808;2022-09-09T17:32:44;2.00;;;0.80;;
38513;SDS011;24282;48.400;10.808;2022-09-09T17:35:11;2.63;;;0.80;;